Time;durP1;ratioP1;P1;durP2;ratioP2;P2;SDS_P1;SDS_P2;PMS_P1;PMS_P2;Temp;Humidity;BMP_temperature;BMP_pressure;BME280_temperature;BME280_humidity;BME280_pressure;Samples;Min_cycle;Max_cycle;Signal;HPM_P1;HPM_P2
2023/05/25 00:00:19;;;;;;;18.13;9.87;;;7.80;99.90;;;;;;5038855;28;20466;-60
2023/05/25 00:02:46;;;;;;;15.53;9.90;;;7.80;7.40;;;;;;5038151;28;20814;-60
2023/05/25 00:05:17;;;;;;;13.97;9.17;;;7.70;1.00;;;;;;5038466;28;20872;-60
2023/05/25 00:07:44;;;;;;;13.23;9.63;;;7.70;64.20;;;;;;5037652;28;20449;-61
2023/05/25 00:10:11;;;;;;;16.77;9.63;;;7.70;99.90;;;;;;5036824;28;20919;-61
2023/05/25 00:12:38;;;;;;;13.70;9.23;;;7.60;99.90;;;;;;5025070;28;20479;-60
2023/05/25 00:15:08;;;;;;;12.93;9.07;;;7.60;99.90;;;;;;5018630;28;20554;-61
2023/05/25 00:17:36;;;;;;;14.43;8.97;;;7.50;1.00;;;;;;5018270;28;20884;-60
2023/05/25 00:20:08;;;;;;;15.70;10.10;;;7.50;1.00;;;;;;5017794;28;20800;-60
2023/05/25 00:22:35;;;;;;;16.03;10.23;;;7.50;1.00;;;;;;5018556;28;20460;-60
2023/05/25 00:25:02;;;;;;;13.77;9.90;;;7.50;99.90;;;;;;5018416;28;20466;-60
2023/05/25 00:27:30;;;;;;;14.57;9.50;;;7.50;1.00;;;;;;5017884;28;20518;-60
2023/05/25 00:29:57;;;;;;;14.40;9.50;;;7.50;99.90;;;;;;5017835;28;20487;-60
2023/05/25 00:32:26;;;;;;;12.27;10.23;;;7.50;1.00;;;;;;5017962;28;20468;-60
2023/05/25 00:34:53;;;;;;;15.97;10.40;;;7.50;3.70;;;;;;5017595;28;20528;-60
2023/05/25 00:37:21;;;;;;;15.63;11.03;;;7.50;52.40;;;;;;5017648;28;20490;-60
2023/05/25 00:39:48;;;;;;;13.53;10.00;;;7.40;99.90;;;;;;5017575;28;20766;-60
2023/05/25 00:42:20;;;;;;;20.93;11.10;;;7.30;36.70;;;;;;5017501;28;20470;-60
2023/05/25 00:44:50;;;;;;;17.07;10.43;;;7.30;99.90;;;;;;5017968;28;20464;-59
2023/05/25 00:47:19;;;;;;;17.87;9.80;;;7.30;99.90;;;;;;5017230;28;20777;-60
2023/05/25 00:49:48;;;;;;;12.33;9.30;;;7.30;99.90;;;;;;5017512;28;20475;-60
2023/05/25 00:52:15;;;;;;;14.30;10.20;;;7.30;1.00;;;;;;5017687;28;20472;-59
2023/05/25 00:54:52;;;;;;;18.10;10.20;;;7.20;1.00;;;;;;5017968;28;20518;-59
2023/05/25 00:57:23;;;;;;;14.37;9.80;;;7.40;1.00;;;;;;5017696;28;20463;-59
2023/05/25 00:59:53;;;;;;;17.20;9.07;;;7.30;99.90;;;;;;5016787;28;20963;-61
2023/05/25 01:02:23;;;;;;;10.70;9.20;;;7.30;99.90;;;;;;5016564;28;20468;-59
2023/05/25 01:04:54;;;;;;;14.03;9.60;;;7.30;99.90;;;;;;5017016;28;20503;-59
2023/05/25 01:07:24;;;;;;;11.60;8.00;;;7.20;1.00;;;;;;5017402;28;20474;-59
2023/05/25 01:09:56;;;;;;;13.13;8.53;;;7.10;99.90;;;;;;5017143;28;20463;-59
2023/05/25 01:12:26;;;;;;;14.43;10.10;;;7.10;11.10;;;;;;5017505;28;20467;-59
2023/05/25 01:14:55;;;;;;;14.00;8.80;;;7.00;99.90;;;;;;5016920;28;20529;-59
2023/05/25 01:17:22;;;;;;;17.40;10.60;;;7.00;1.00;;;;;;5017277;28;20470;-60
2023/05/25 01:19:51;;;;;;;17.97;10.73;;;7.00;1.00;;;;;;5017535;28;20484;-60
2023/05/25 01:22:25;;;;;;;12.57;9.20;;;7.00;99.90;;;;;;5017006;28;20468;-59
2023/05/25 01:24:56;;;;;;;15.03;10.57;;;7.00;77.80;;;;;;5016905;28;20980;-59
2023/05/25 01:27:29;;;;;;;13.50;9.87;;;6.90;1.00;;;;;;5017160;28;20566;-59
2023/05/25 01:29:59;;;;;;;14.97;9.47;;;6.90;1.00;;;;;;5016373;28;20841;-60
2023/05/25 01:32:27;;;;;;;17.70;9.07;;;6.80;1.00;;;;;;5016436;28;20474;-59
2023/05/25 01:34:58;;;;;;;12.20;10.20;;;6.80;1.00;;;;;;5018533;28;20467;-60
2023/05/25 01:37:28;;;;;;;14.60;9.47;;;6.70;1.00;;;;;;5017211;28;20571;-59
2023/05/25 01:39:55;;;;;;;12.07;9.30;;;6.70;35.60;;;;;;5022296;28;20926;-59
2023/05/25 01:42:22;;;;;;;14.00;10.43;;;6.70;1.00;;;;;;5036678;28;20474;-60
2023/05/25 01:44:50;;;;;;;13.83;9.43;;;6.60;93.90;;;;;;5036149;28;20822;-59
2023/05/25 01:47:23;;;;;;;21.03;9.97;;;6.60;1.00;;;;;;5037083;28;20457;-59
2023/05/25 01:50:00;;;;;;;15.23;9.93;;;6.60;6.80;;;;;;5037095;28;20554;-62
2023/05/25 01:52:32;;;;;;;14.43;9.13;;;6.60;1.00;;;;;;5036765;28;20907;-61
2023/05/25 01:57:50;;;;;;;14.70;9.90;;;6.50;99.90;;;;;;5026280;28;20475;-61
2023/05/25 02:00:20;;;;;;;15.57;9.67;;;6.50;1.00;;;;;;5052419;28;20488;-62
2023/05/25 02:02:48;;;;;;;12.20;10.00;;;6.50;1.00;;;;;;5056357;28;20437;-61
2023/05/25 02:05:15;;;;;;;19.40;10.40;;;6.50;1.00;;;;;;5056054;28;20437;-62
2023/05/25 02:07:44;;;;;;;15.60;10.27;;;6.50;1.00;;;;;;5056397;28;20766;-61
2023/05/25 02:10:11;;;;;;;22.40;12.03;;;6.50;1.00;;;;;;5056390;28;20458;-61
2023/05/25 02:12:38;;;;;;;13.43;9.20;;;6.40;99.90;;;;;;5057396;28;20545;-61
2023/05/25 02:15:07;;;;;;;11.70;9.80;;;6.40;99.90;;;;;;5059500;28;20475;-62
2023/05/25 02:17:35;;;;;;;15.20;10.00;;;6.40;50.20;;;;;;5059594;28;20750;-61
2023/05/25 02:20:04;;;;;;;14.20;10.33;;;6.30;99.90;;;;;;5059832;28;20468;-61
2023/05/25 02:22:32;;;;;;;16.37;10.00;;;6.30;1.00;;;;;;5059875;28;20461;-61
2023/05/25 02:25:00;;;;;;;15.37;10.90;;;6.20;99.90;;;;;;5059545;28;20466;-61
2023/05/25 02:27:28;;;;;;;13.97;10.20;;;6.10;1.00;;;;;;5059946;28;20462;-61
2023/05/25 02:29:55;;;;;;;14.90;10.50;;;6.10;1.00;;;;;;5058479;28;20593;-61
2023/05/25 02:32:22;;;;;;;12.93;10.33;;;6.10;99.90;;;;;;5059635;28;20468;-61
2023/05/25 02:34:49;;;;;;;11.90;9.90;;;6.10;1.00;;;;;;5059350;28;20465;-61
2023/05/25 02:37:16;;;;;;;12.57;9.33;;;6.10;99.90;;;;;;5059245;28;20545;-61
2023/05/25 02:39:43;;;;;;;13.47;9.50;;;6.10;99.90;;;;;;5059475;28;20497;-61
2023/05/25 02:42:12;;;;;;;13.07;10.20;;;6.10;1.00;;;;;;5059317;28;20933;-61
2023/05/25 02:44:39;;;;;;;15.30;10.47;;;6.10;34.00;;;;;;5059321;28;20797;-62
2023/05/25 02:47:06;;;;;;;12.73;9.00;;;6.10;41.00;;;;;;5059534;28;20468;-61
2023/05/25 02:49:33;;;;;;;17.30;11.10;;;6.10;18.10;;;;;;5059443;28;20458;-62
2023/05/25 02:52:00;;;;;;;15.20;10.47;;;6.10;1.00;;;;;;5059322;28;20466;-62
2023/05/25 02:54:27;;;;;;;14.37;10.70;;;6.10;1.00;;;;;;5059441;28;20479;-61
2023/05/25 02:56:55;;;;;;;17.03;10.63;;;6.00;99.90;;;;;;5058799;28;20468;-62
2023/05/25 02:59:24;;;;;;;13.93;9.80;;;6.00;1.00;;;;;;5059042;28;20490;-62
2023/05/25 03:01:51;;;;;;;10.50;9.17;;;6.00;1.00;;;;;;5059042;28;20462;-61
2023/05/25 03:04:19;;;;;;;18.20;11.10;;;5.90;1.00;;;;;;5058898;28;20465;-61
2023/05/25 03:06:46;;;;;;;15.10;10.40;;;5.90;1.00;;;;;;5058305;28;20466;-62
2023/05/25 03:09:13;;;;;;;14.40;10.33;;;5.90;1.00;;;;;;5058814;28;20462;-61
2023/05/25 03:11:40;;;;;;;16.70;10.20;;;5.90;1.00;;;;;;5058902;28;20478;-61
2023/05/25 03:14:07;;;;;;;16.40;9.97;;;5.90;93.90;;;;;;5058758;28;20562;-61
2023/05/25 03:16:37;;;;;;;18.77;10.47;;;5.80;99.90;;;;;;5058527;28;20488;-61
2023/05/25 03:19:05;;;;;;;16.70;10.03;;;5.80;99.90;;;;;;5058356;28;20556;-61
2023/05/25 03:21:32;;;;;;;14.27;10.20;;;5.80;99.90;;;;;;5059003;28;20462;-62
2023/05/25 03:23:59;;;;;;;12.60;10.80;;;5.80;30.00;;;;;;5058457;28;20473;-61
2023/05/25 03:26:27;;;;;;;19.30;10.00;;;5.80;1.00;;;;;;5058173;28;20441;-61
2023/05/25 03:28:55;;;;;;;14.60;10.77;;;5.90;1.00;;;;;;5049706;28;20513;-61
2023/05/25 03:31:23;;;;;;;13.70;10.00;;;6.00;1.00;;;;;;5023088;28;20908;-61
2023/05/25 03:33:51;;;;;;;18.47;9.80;;;5.90;1.00;;;;;;5018748;28;20464;-61
2023/05/25 03:36:18;;;;;;;16.47;10.03;;;5.90;1.00;;;;;;5016967;28;20479;-61
2023/05/25 03:38:45;;;;;;;13.40;9.33;;;5.80;1.00;;;;;;5018534;28;20910;-62
2023/05/25 03:41:12;;;;;;;15.30;10.13;;;5.80;99.90;;;;;;5018606;28;20567;-61
2023/05/25 03:43:40;;;;;;;15.60;10.57;;;5.80;99.90;;;;;;5018525;28;20471;-62
2023/05/25 03:46:08;;;;;;;14.00;11.03;;;5.80;99.90;;;;;;5018597;28;20908;-62
2023/05/25 03:48:35;;;;;;;14.03;10.10;;;5.80;99.90;;;;;;5018074;28;20562;-62
2023/05/25 03:51:04;;;;;;;15.77;10.47;;;5.90;99.90;;;;;;5018345;28;20888;-62
2023/05/25 03:53:31;;;;;;;13.93;10.30;;;5.90;99.90;;;;;;5018153;28;20439;-61
2023/05/25 03:56:02;;;;;;;16.13;10.90;;;5.80;99.90;;;;;;5018681;28;20468;-61
2023/05/25 03:58:29;;;;;;;17.47;12.80;;;5.90;99.90;;;;;;5017628;28;20464;-62
2023/05/25 04:00:57;;;;;;;17.07;10.37;;;5.90;1.00;;;;;;5018101;28;20554;-62
2023/05/25 04:03:24;;;;;;;17.80;11.67;;;6.00;33.40;;;;;;5017801;28;20889;-61
2023/05/25 04:05:52;;;;;;;14.77;11.13;;;6.00;92.00;;;;;;5018086;28;20468;-62
2023/05/25 04:08:21;;;;;;;14.70;11.77;;;6.00;99.90;;;;;;5018021;28;20564;-62
2023/05/25 04:10:48;;;;;;;15.47;11.67;;;6.10;1.00;;;;;;5017534;28;20523;-61
2023/05/25 04:13:16;;;;;;;21.97;13.47;;;6.20;1.00;;;;;;5018392;28;21033;-62
2023/05/25 04:15:43;;;;;;;17.87;12.30;;;6.20;91.20;;;;;;5017754;28;20980;-61
2023/05/25 04:18:10;;;;;;;17.50;12.60;;;6.30;99.90;;;;;;5018427;28;20559;-62
2023/05/25 04:20:37;;;;;;;21.37;12.20;;;6.30;38.20;;;;;;5017733;28;20502;-62
2023/05/25 04:23:04;;;;;;;19.93;12.83;;;6.30;1.00;;;;;;5017632;28;20901;-62
2023/05/25 04:25:33;;;;;;;14.43;11.60;;;6.30;1.00;;;;;;5017633;28;20471;-62
2023/05/25 04:28:01;;;;;;;21.40;14.60;;;6.40;1.00;;;;;;5017930;28;20496;-62
2023/05/25 04:30:28;;;;;;;22.00;13.07;;;6.40;1.00;;;;;;5017418;28;20550;-62
2023/05/25 04:32:56;;;;;;;20.43;12.70;;;6.50;1.00;;;;;;5017896;28;20885;-62
2023/05/25 04:35:23;;;;;;;21.17;12.80;;;6.50;1.00;;;;;;5017189;28;20435;-62
2023/05/25 04:37:50;;;;;;;14.33;12.17;;;6.60;1.00;;;;;;5017841;28;20468;-62
2023/05/25 04:40:20;;;;;;;21.10;12.60;;;6.70;4.00;;;;;;5016644;28;20492;-62
2023/05/25 04:42:48;;;;;;;21.80;13.77;;;6.80;1.00;;;;;;5017113;28;20738;-62
2023/05/25 04:45:16;;;;;;;17.33;12.07;;;6.90;1.00;;;;;;5015788;28;20558;-62
2023/05/25 04:47:44;;;;;;;22.00;13.93;;;7.00;1.00;;;;;;5021763;28;20517;-62
2023/05/25 04:50:12;;;;;;;18.63;13.87;;;7.10;1.00;;;;;;5026013;28;20893;-62
2023/05/25 04:52:39;;;;;;;21.40;14.30;;;7.20;1.00;;;;;;5031701;28;20482;-62
2023/05/25 04:55:07;;;;;;;18.47;13.87;;;7.30;1.00;;;;;;5033797;28;20444;-60
2023/05/25 04:57:34;;;;;;;21.57;14.20;;;7.40;37.10;;;;;;5031325;28;20498;-60
2023/05/25 05:00:04;;;;;;;24.00;14.00;;;7.40;99.90;;;;;;5033987;28;21013;-60
2023/05/25 05:02:32;;;;;;;20.10;14.17;;;7.50;99.90;;;;;;5029853;28;20481;-59
2023/05/25 05:04:59;;;;;;;21.70;14.40;;;7.60;99.90;;;;;;5032099;28;21126;-59
2023/05/25 05:07:26;;;;;;;21.30;14.73;;;7.70;99.90;;;;;;5033944;28;20470;-60
2023/05/25 05:09:53;;;;;;;23.00;15.50;;;7.80;99.90;;;;;;5034619;28;20432;-60
2023/05/25 05:12:20;;;;;;;18.23;13.43;;;7.90;99.90;;;;;;5035608;28;20497;-59
2023/05/25 05:14:47;;;;;;;20.50;16.17;;;8.00;1.00;;;;;;5035658;28;20459;-59
2023/05/25 05:17:17;;;;;;;23.73;14.93;;;8.10;1.00;;;;;;5027571;28;20442;-60
2023/05/25 05:19:44;;;;;;;21.57;14.43;;;8.20;1.00;;;;;;5035620;28;20912;-59
2023/05/25 05:22:14;;;;;;;23.27;15.33;;;8.30;1.00;;;;;;5035421;28;20474;-59
2023/05/25 05:24:41;;;;;;;25.73;16.10;;;8.50;1.00;;;;;;5035041;28;20467;-60
2023/05/25 05:27:09;;;;;;;25.17;17.47;;;8.60;1.00;;;;;;5035457;28;20473;-59
2023/05/25 05:29:36;;;;;;;23.33;16.07;;;8.70;1.00;;;;;;5035174;28;20546;-60
2023/05/25 05:32:04;;;;;;;27.77;17.37;;;8.90;1.00;;;;;;5031905;28;20792;-59
2023/05/25 05:34:32;;;;;;;24.13;17.20;;;9.00;1.00;;;;;;5016008;28;20512;-60
2023/05/25 05:37:00;;;;;;;30.80;18.57;;;9.10;1.00;;;;;;5016748;28;20482;-59
2023/05/25 05:39:27;;;;;;;24.97;17.70;;;9.30;1.00;;;;;;5017190;28;20435;-58
2023/05/25 05:41:55;;;;;;;29.50;19.10;;;9.50;1.00;;;;;;5016787;28;20499;-59
2023/05/25 05:44:22;;;;;;;32.50;18.33;;;9.70;1.00;;;;;;5015425;28;20848;-58
2023/05/25 05:46:49;;;;;;;32.27;18.10;;;9.90;1.00;;;;;;5016372;28;20805;-58
2023/05/25 05:49:16;;;;;;;29.13;18.13;;;10.10;1.00;;;;;;5018892;28;20507;-60
2023/05/25 05:51:45;;;;;;;21.40;17.63;;;10.30;99.90;;;;;;5019545;28;20459;-58
2023/05/25 05:54:12;;;;;;;25.10;16.50;;;10.60;1.00;;;;;;5019751;28;20558;-58
2023/05/25 05:56:39;;;;;;;25.00;16.43;;;10.80;99.90;;;;;;5020080;28;20519;-58
2023/05/25 05:59:07;;;;;;;24.40;16.97;;;11.00;1.00;;;;;;5020210;28;20909;-58
2023/05/25 06:01:35;;;;;;;28.27;17.57;;;11.30;1.00;;;;;;5019730;28;20499;-58
2023/05/25 06:04:02;;;;;;;24.63;16.43;;;11.50;99.90;;;;;;5019304;28;20905;-58
2023/05/25 06:06:31;;;;;;;24.20;17.27;;;11.70;1.00;;;;;;5016304;28;20566;-59
2023/05/25 06:09:02;;;;;;;20.57;15.97;;;11.70;1.00;;;;;;5016551;28;20734;-59
2023/05/25 06:11:30;;;;;;;28.37;17.73;;;11.80;1.00;;;;;;5016688;28;20802;-57
2023/05/25 06:13:57;;;;;;;31.10;17.73;;;12.00;99.90;;;;;;5016429;28;20438;-59
2023/05/25 06:16:24;;;;;;;28.07;18.63;;;12.00;1.00;;;;;;5016173;28;20812;-59
2023/05/25 06:18:51;;;;;;;29.43;18.67;;;12.20;1.00;;;;;;5016600;28;20540;-59
2023/05/25 06:21:18;;;;;;;24.20;17.00;;;12.40;99.90;;;;;;5018399;28;20595;-58
2023/05/25 06:23:46;;;;;;;24.47;19.20;;;12.60;99.90;;;;;;5017630;28;20620;-58
2023/05/25 06:26:15;;;;;;;21.33;18.00;;;12.50;99.90;;;;;;5019517;28;20491;-58
2023/05/25 06:28:42;;;;;;;21.80;17.43;;;12.40;99.90;;;;;;5025329;28;20465;-59
2023/05/25 06:31:09;;;;;;;26.43;19.77;;;12.30;99.90;;;;;;5027179;28;20717;-58
2023/05/25 06:33:36;;;;;;;23.60;17.83;;;12.50;1.00;;;;;;5020273;28;20503;-58
2023/05/25 06:36:04;;;;;;;21.37;16.97;;;12.90;1.00;;;;;;5019701;28;20767;-59
2023/05/25 06:38:32;;;;;;;23.93;16.97;;;13.20;99.90;;;;;;5019485;28;20468;-59
2023/05/25 06:41:02;;;;;;;20.77;16.67;;;13.50;99.90;;;;;;5020101;28;20467;-58
2023/05/25 06:43:31;;;;;;;20.97;16.40;;;13.40;1.00;;;;;;5031564;28;20869;-59
2023/05/25 06:45:58;;;;;;;24.13;16.33;;;13.50;1.00;;;;;;5039778;28;20470;-59
2023/05/25 06:48:25;;;;;;;25.60;17.33;;;13.50;1.00;;;;;;5039146;28;20460;-57
2023/05/25 06:50:52;;;;;;;28.93;16.60;;;13.10;1.00;;;;;;5038625;28;20522;-58
2023/05/25 06:53:20;;;;;;;21.93;17.07;;;13.10;1.00;;;;;;5039526;28;20565;-58
2023/05/25 06:55:48;;;;;;;22.00;16.27;;;13.10;1.00;;;;;;5038415;28;20565;-57
2023/05/25 06:58:15;;;;;;;21.53;15.20;;;12.90;1.00;;;;;;5038456;28;20904;-58
2023/05/25 07:00:43;;;;;;;20.53;15.70;;;13.20;1.80;;;;;;5032988;28;20488;-58
2023/05/25 07:03:11;;;;;;;23.70;15.13;;;13.10;1.00;;;;;;5018691;28;20564;-58
2023/05/25 07:05:38;;;;;;;18.07;14.90;;;13.50;1.00;;;;;;5018779;28;20503;-59
2023/05/25 07:08:05;;;;;;;24.37;14.43;;;13.80;99.90;;;;;;5019234;28;20537;-58
2023/05/25 07:10:32;;;;;;;21.00;13.43;;;14.30;99.90;;;;;;5019626;28;20555;-59
2023/05/25 07:12:59;;;;;;;20.37;14.40;;;14.30;99.90;;;;;;5019598;28;20523;-59
2023/05/25 07:15:27;;;;;;;20.13;14.50;;;14.60;99.90;;;;;;5028811;28;20522;-58
2023/05/25 07:17:56;;;;;;;20.13;14.70;;;15.10;1.00;;;;;;5035099;28;20467;-58
2023/05/25 07:20:23;;;;;;;19.13;14.87;;;15.50;1.00;;;;;;5039011;28;20835;-58
2023/05/25 07:22:52;;;;;;;21.40;14.83;;;15.80;1.00;;;;;;5038891;28;20561;-58
2023/05/25 07:25:20;;;;;;;17.07;13.60;;;16.20;99.90;;;;;;5029177;28;20482;-59
2023/05/25 07:27:49;;;;;;;21.83;13.50;;;16.30;99.90;;;;;;5019248;28;20474;-59
2023/05/25 07:30:16;;;;;;;18.77;13.93;;;16.60;99.90;;;;;;5039038;28;20550;-58
2023/05/25 07:32:43;;;;;;;18.87;14.20;;;16.80;99.90;;;;;;5018668;28;20839;-58
2023/05/25 07:35:12;;;;;;;17.27;13.67;;;17.30;99.90;;;;;;5018714;28;20558;-58
2023/05/25 07:37:39;;;;;;;17.97;12.63;;;17.70;1.00;;;;;;5018903;28;20548;-58
2023/05/25 07:40:07;;;;;;;17.00;11.60;;;17.70;1.00;;;;;;5037574;28;20499;-58
2023/05/25 07:42:35;;;;;;;12.63;11.33;;;18.00;1.00;;;;;;5041341;28;20964;-58
2023/05/25 07:45:02;;;;;;;15.13;10.73;;;18.00;1.00;;;;;;5048967;28;20734;-59
2023/05/25 07:47:29;;;;;;;15.97;10.53;;;17.60;1.00;;;;;;5057698;28;20468;-58
2023/05/25 07:49:59;;;;;;;15.37;10.60;;;17.40;99.90;;;;;;5056233;28;20561;-59
2023/05/25 07:52:28;;;;;;;14.07;10.57;;;17.20;1.00;;;;;;5055690;28;20459;-58
2023/05/25 07:54:55;;;;;;;16.07;11.90;;;17.00;1.00;;;;;;5056759;28;20454;-60
2023/05/25 07:57:22;;;;;;;14.77;10.87;;;17.00;1.00;;;;;;5055790;28;20557;-59
2023/05/25 07:59:50;;;;;;;12.77;10.10;;;16.80;1.00;;;;;;5056453;28;20569;-59
2023/05/25 08:02:17;;;;;;;13.97;10.87;;;17.20;1.00;;;;;;5056261;28;20494;-58
2023/05/25 08:04:46;;;;;;;14.37;10.13;;;16.50;1.00;;;;;;5056607;28;20466;-58
2023/05/25 08:07:13;;;;;;;14.73;11.73;;;16.90;1.00;;;;;;5057138;28;20497;-60
2023/05/25 08:09:42;;;;;;;18.67;11.40;;;16.40;1.00;;;;;;5035951;28;20787;-59
2023/05/25 08:12:09;;;;;;;14.13;10.60;;;16.70;1.00;;;;;;5035819;28;20719;-59
2023/05/25 08:14:38;;;;;;;12.70;10.80;;;17.40;1.00;;;;;;5037560;28;20471;-58
2023/05/25 08:17:06;;;;;;;12.17;10.73;;;17.70;1.00;;;;;;5038028;28;20518;-58
2023/05/25 08:19:33;;;;;;;13.40;10.50;;;17.50;1.00;;;;;;5037918;28;20884;-58
2023/05/25 08:22:00;;;;;;;18.60;11.00;;;17.60;99.90;;;;;;5037619;28;20557;-58
2023/05/25 08:24:27;;;;;;;12.23;11.03;;;17.80;99.90;;;;;;5038190;28;20554;-58
2023/05/25 08:26:56;;;;;;;14.13;10.83;;;17.80;99.90;;;;;;5034716;28;20475;-59
2023/05/25 08:29:23;;;;;;;13.33;9.30;;;17.50;99.90;;;;;;5037032;28;20497;-60
2023/05/25 08:31:50;;;;;;;16.13;10.63;;;17.50;99.90;;;;;;5036390;28;20892;-58
2023/05/25 08:34:19;;;;;;;12.27;10.13;;;17.40;99.90;;;;;;5037780;28;20565;-61
2023/05/25 08:36:46;;;;;;;13.10;11.23;;;17.60;99.90;;;;;;5044785;28;20885;-58
2023/05/25 08:39:14;;;;;;;17.27;11.03;;;16.00;1.00;;;;;;5037609;28;20459;-58
2023/05/25 08:41:43;;;;;;;11.60;10.40;;;16.40;1.00;;;;;;5037662;28;20928;-58
2023/05/25 08:44:14;;;;;;;13.00;9.93;;;16.90;1.00;;;;;;5036996;28;20471;-59
2023/05/25 08:46:41;;;;;;;11.90;10.40;;;17.10;1.00;;;;;;5036187;28;20477;-60
2023/05/25 08:49:10;;;;;;;10.50;9.03;;;16.40;1.00;;;;;;5036839;28;20463;-60
2023/05/25 08:51:51;;;;;;;13.57;9.13;;;16.70;1.00;;;;;;5037472;28;20455;-59
2023/05/25 08:54:20;;;;;;;12.70;10.03;;;16.70;1.00;;;;;;5036718;28;20463;-59
2023/05/25 08:56:51;;;;;;;11.30;10.10;;;17.70;1.00;;;;;;5036184;28;20536;-59
2023/05/25 08:59:36;;;;;;;10.47;9.27;;;17.90;99.90;;;;;;5036446;28;20943;-57
2023/05/25 09:02:14;;;;;;;12.60;10.07;;;18.50;99.90;;;;;;5036513;28;20495;-60
2023/05/25 09:04:43;;;;;;;12.53;9.70;;;18.80;99.90;;;;;;5035726;28;20892;-60
2023/05/25 09:07:10;;;;;;;12.70;9.53;;;18.90;99.90;;;;;;5037372;28;20794;-57
2023/05/25 09:09:41;;;;;;;10.70;9.53;;;19.00;99.90;;;;;;5036710;28;20467;-58
2023/05/25 09:12:09;;;;;;;11.23;9.30;;;18.80;99.90;;;;;;5034074;28;20545;-59
2023/05/25 09:14:44;;;;;;;10.33;8.30;;;18.20;99.90;;;;;;5034164;28;20498;-60
2023/05/25 09:17:12;;;;;;;14.00;9.30;;;17.60;99.90;;;;;;5033914;28;20467;-59
2023/05/25 09:19:39;;;;;;;9.57;7.80;;;17.30;99.90;;;;;;5034301;28;20752;-58
2023/05/25 09:22:06;;;;;;;10.60;8.33;;;17.60;99.90;;;;;;5036239;28;20801;-60
2023/05/25 09:24:35;;;;;;;9.80;8.80;;;17.40;99.90;;;;;;5039196;28;20501;-59
2023/05/25 09:27:03;;;;;;;11.20;9.20;;;17.80;99.90;;;;;;5039251;28;20451;-59
2023/05/25 09:29:31;;;;;;;12.53;9.20;;;17.50;99.90;;;;;;5038514;28;20789;-60
2023/05/25 09:32:00;;;;;;;10.20;8.67;;;17.20;99.90;;;;;;5038005;28;20450;-61
2023/05/25 09:34:32;;;;;;;12.23;9.20;;;16.70;99.90;;;;;;5040321;28;20467;-59
2023/05/25 09:37:00;;;;;;;12.37;9.60;;;16.50;99.90;;;;;;5038881;28;20768;-61
2023/05/25 09:39:27;;;;;;;14.83;9.20;;;17.50;99.90;;;;;;5038672;28;20489;-60
2023/05/25 09:41:54;;;;;;;10.13;8.53;;;18.60;99.90;;;;;;5037570;28;20510;-60
2023/05/25 09:44:21;;;;;;;9.90;8.33;;;18.60;99.90;;;;;;5038422;28;20463;-59
2023/05/25 09:46:49;;;;;;;11.57;9.53;;;19.20;99.90;;;;;;5038296;28;20491;-61
2023/05/25 09:49:18;;;;;;;9.87;8.60;;;19.10;99.90;;;;;;5038682;28;20458;-61
2023/05/25 09:51:45;;;;;;;10.50;9.50;;;19.20;99.90;;;;;;5037825;28;20459;-61
2023/05/25 09:54:13;;;;;;;10.17;9.30;;;19.20;99.90;;;;;;5037922;28;20470;-61
2023/05/25 09:56:41;;;;;;;9.00;8.10;;;18.90;99.90;;;;;;5038407;28;20555;-61
2023/05/25 09:59:08;;;;;;;9.70;8.83;;;18.80;99.90;;;;;;5037196;28;20467;-60
2023/05/25 10:01:36;;;;;;;13.57;9.30;;;19.00;99.90;;;;;;5036630;28;20521;-61
2023/05/25 10:04:03;;;;;;;11.33;9.77;;;18.50;99.90;;;;;;5037101;28;20478;-61
2023/05/25 10:06:33;;;;;;;11.63;10.47;;;17.70;99.90;;;;;;5037814;28;20473;-61
2023/05/25 10:09:03;;;;;;;13.17;11.73;;;17.80;99.90;;;;;;5037148;28;20487;-61
2023/05/25 10:11:32;;;;;;;11.90;10.80;;;17.20;99.90;;;;;;5038091;28;20463;-61
2023/05/25 10:14:02;;;;;;;10.10;9.00;;;16.90;99.90;;;;;;5039314;28;20895;-60
2023/05/25 10:16:33;;;;;;;10.23;9.20;;;16.60;99.90;;;;;;5039846;28;20849;-60
2023/05/25 10:19:04;;;;;;;15.43;13.70;;;16.70;99.90;;;;;;5039454;28;20569;-61
2023/05/25 10:21:35;;;;;;;16.30;14.83;;;17.30;99.90;;;;;;5035337;28;20493;-61
2023/05/25 10:24:06;;;;;;;17.93;16.43;;;17.10;99.90;;;;;;5037735;28;20474;-60
2023/05/25 10:26:38;;;;;;;19.60;17.50;;;16.10;99.90;;;;;;5038334;28;20528;-61
2023/05/25 10:29:06;;;;;;;21.10;18.20;;;16.00;99.90;;;;;;5038092;28;20526;-60
2023/05/25 10:31:36;;;;;;;20.63;18.70;;;15.70;1.00;;;;;;5036516;28;20983;-61
2023/05/25 10:34:04;;;;;;;20.23;18.30;;;15.60;1.00;;;;;;5038017;28;20566;-60
2023/05/25 10:36:35;;;;;;;19.30;17.40;;;15.60;1.00;;;;;;5039024;28;20663;-60
2023/05/25 10:39:03;;;;;;;21.63;16.40;;;15.80;1.00;;;;;;5040374;28;20753;-60
2023/05/25 10:41:30;;;;;;;21.70;16.87;;;15.50;1.00;;;;;;5040275;28;20850;-61
2023/05/25 10:43:57;;;;;;;18.43;16.53;;;15.20;1.00;;;;;;5039632;28;20459;-62
2023/05/25 10:46:25;;;;;;;18.27;15.47;;;15.20;1.00;;;;;;5040195;28;20495;-61
2023/05/25 10:48:52;;;;;;;15.93;14.23;;;15.00;1.00;;;;;;5040687;28;20742;-62
2023/05/25 10:51:20;;;;;;;17.50;14.57;;;14.90;1.00;;;;;;5047073;28;20867;-61
2023/05/25 10:54:00;;;;;;;17.00;14.43;;;14.90;1.00;;;;;;5049925;28;20459;-62
2023/05/25 10:56:27;;;;;;;19.20;15.87;;;14.90;1.00;;;;;;5043513;28;20467;-62
2023/05/25 10:58:55;;;;;;;16.70;14.97;;;14.80;1.00;;;;;;5059696;28;20858;-62
2023/05/25 11:01:23;;;;;;;16.73;14.23;;;14.90;1.00;;;;;;5057893;28;20436;-62
2023/05/25 11:03:57;;;;;;;16.17;13.97;;;15.20;1.00;;;;;;5039372;28;20528;-62
2023/05/25 11:07:03;;;;;;;13.90;12.40;;;15.00;1.00;;;;;;5038182;28;20682;-62
2023/05/25 11:09:31;;;;;;;16.33;14.67;;;15.20;64.80;;;;;;5037579;28;20469;-62
2023/05/25 11:12:03;;;;;;;16.77;15.17;;;15.30;1.00;;;;;;5050397;28;20458;-62
2023/05/25 11:14:31;;;;;;;20.07;18.17;;;15.20;1.00;;;;;;5038929;28;20474;-62
2023/05/25 11:17:06;;;;;;;20.60;18.60;;;15.50;1.00;;;;;;5049010;28;20542;-61
2023/05/25 11:19:42;;;;;;;19.77;17.83;;;15.50;1.00;;;;;;5044257;28;20845;-62
2023/05/25 11:22:19;;;;;;;17.50;15.90;;;15.50;1.00;;;;;;5047492;28;20494;-62
2023/05/25 11:24:51;;;;;;;17.30;15.70;;;15.90;1.00;;;;;;5037593;28;20536;-61
2023/05/25 11:27:23;;;;;;;18.20;16.40;;;16.20;99.90;;;;;;5040634;28;20477;-60
2023/05/25 11:29:51;;;;;;;17.90;16.20;;;16.20;99.90;;;;;;5037882;28;20494;-60
2023/05/25 11:32:18;;;;;;;17.63;15.80;;;16.10;99.90;;;;;;5054322;28;20508;-60
2023/05/25 11:34:47;;;;;;;16.97;15.57;;;16.00;99.90;;;;;;5058217;28;20536;-60
2023/05/25 11:37:19;;;;;;;17.43;15.83;;;15.80;99.90;;;;;;5049730;28;20982;-60
2023/05/25 11:39:49;;;;;;;16.80;15.20;;;15.90;99.90;;;;;;5058049;28;20512;-61
2023/05/25 11:42:19;;;;;;;16.33;14.97;;;15.60;99.90;;;;;;5051774;28;20519;-61
2023/05/25 11:44:46;;;;;;;17.30;15.60;;;15.90;99.90;;;;;;5051366;28;20557;-61
2023/05/25 11:47:17;;;;;;;14.43;13.27;;;15.90;99.90;;;;;;5048106;28;20454;-61
2023/05/25 11:49:48;;;;;;;13.47;12.07;;;16.00;99.90;;;;;;5052669;28;20914;-61
2023/05/25 11:52:16;;;;;;;13.20;11.23;;;16.10;99.90;;;;;;5051974;28;20436;-60
2023/05/25 11:54:44;;;;;;;12.13;10.60;;;16.40;99.90;;;;;;5059325;28;20535;-58
2023/05/25 11:57:17;;;;;;;12.43;11.10;;;16.20;99.90;;;;;;5058480;28;20598;-59
2023/05/25 11:59:51;;;;;;;12.27;11.00;;;16.10;99.90;;;;;;5047983;28;20750;-57
2023/05/25 12:02:19;;;;;;;14.90;10.37;;;16.10;99.90;;;;;;5047226;28;20918;-58
2023/05/25 12:04:54;;;;;;;12.53;9.90;;;16.30;99.90;;;;;;5040314;28;20951;-59
2023/05/25 12:07:21;;;;;;;12.07;10.50;;;16.80;99.90;;;;;;5038585;28;20892;-60
2023/05/25 12:09:49;;;;;;;11.40;9.67;;;16.90;99.90;;;;;;5044393;28;20957;-59
2023/05/25 12:12:17;;;;;;;14.03;9.70;;;17.30;99.90;;;;;;5044882;28;20452;-58
2023/05/25 12:14:48;;;;;;;10.03;8.93;;;17.40;99.90;;;;;;5041671;28;20460;-59
2023/05/25 12:17:17;;;;;;;13.40;10.10;;;16.90;99.90;;;;;;5040486;28;20458;-59
2023/05/25 12:19:44;;;;;;;10.50;9.40;;;16.70;99.90;;;;;;5040390;28;20490;-59
2023/05/25 12:22:12;;;;;;;10.10;9.10;;;17.00;99.90;;;;;;5039502;28;20483;-60
2023/05/25 12:24:40;;;;;;;10.67;9.60;;;17.60;99.90;;;;;;5043748;28;20541;-60
2023/05/25 12:27:19;;;;;;;11.60;9.10;;;18.10;99.90;;;;;;5045665;28;20846;-59
2023/05/25 12:29:47;;;;;;;9.57;8.67;;;18.50;99.90;;;;;;5037578;28;20494;-59
2023/05/25 12:32:15;;;;;;;14.90;9.60;;;18.50;99.90;;;;;;5025515;28;20456;-59
2023/05/25 12:34:42;;;;;;;9.00;8.10;;;18.00;99.90;;;;;;5019182;28;20559;-60
2023/05/25 12:37:18;;;;;;;10.27;9.00;;;18.40;99.90;;;;;;5022950;28;20468;-59
2023/05/25 12:39:46;;;;;;;12.10;10.50;;;18.30;99.90;;;;;;5037442;28;20454;-59
2023/05/25 12:42:15;;;;;;;9.50;8.60;;;18.30;99.90;;;;;;5050276;28;20490;-58
2023/05/25 12:44:45;;;;;;;9.83;8.80;;;18.30;99.90;;;;;;5056923;28;20467;-59
2023/05/25 12:47:15;;;;;;;11.00;9.13;;;18.40;99.90;;;;;;5055526;28;20564;-60